createdAt,value
2022-09-12T00:01:16.074Z,5.30
2022-09-12T00:03:43.817Z,5.70
2022-09-12T00:06:23.172Z,5.28
2022-09-12T00:08:54.507Z,5.40
2022-09-12T00:11:21.952Z,5.57
2022-09-12T00:13:49.344Z,5.38
2022-09-12T00:16:23.185Z,5.68
2022-09-12T00:18:51.388Z,5.47
2022-09-12T00:21:19.448Z,5.32
2022-09-12T00:23:47.268Z,5.15
2022-09-12T00:26:14.902Z,5.25
2022-09-12T00:28:42.373Z,5.30
2022-09-12T00:31:13.306Z,6.00
2022-09-12T00:33:40.627Z,5.18
2022-09-12T00:36:12.938Z,5.75
2022-09-12T00:38:42.151Z,5.40
2022-09-12T00:41:33.413Z,5.65
2022-09-12T00:44:03.155Z,5.55
2022-09-12T00:46:54.362Z,5.40
2022-09-12T00:49:41.362Z,5.32
2022-09-12T00:52:16.732Z,5.63
2022-09-12T00:54:49.299Z,5.55
2022-09-12T00:57:18.141Z,5.50
2022-09-12T00:59:51.797Z,5.88
2022-09-12T01:02:19.382Z,6.03
2022-09-12T01:04:47.940Z,5.55
2022-09-12T01:07:15.473Z,5.15
2022-09-12T01:09:45.741Z,4.95
2022-09-12T01:12:15.242Z,5.55
2022-09-12T01:14:43.156Z,5.32
2022-09-12T01:17:15.412Z,5.20
2022-09-12T01:20:29.262Z,5.30
2022-09-12T01:23:13.948Z,5.32
2022-09-12T01:26:32.647Z,5.50
2022-09-12T01:29:09.921Z,5.60
2022-09-12T01:32:35.663Z,5.50
2022-09-12T01:35:16.802Z,5.50
2022-09-12T01:38:11.855Z,5.20
2022-09-12T01:40:58.157Z,5.32
2022-09-12T01:44:13.525Z,5.22
2022-09-12T01:47:10.152Z,5.10
2022-09-12T01:50:06.977Z,5.82
2022-09-12T01:52:54.466Z,4.93
2022-09-12T01:55:30.508Z,4.97
2022-09-12T01:58:15.614Z,5.00
2022-09-12T02:00:54.591Z,5.50
2022-09-12T02:03:29.561Z,5.05
2022-09-12T02:06:22.525Z,5.22
2022-09-12T02:08:58.559Z,5.07
2022-09-12T02:11:25.603Z,5.18
2022-09-12T02:14:21.687Z,5.10
2022-09-12T02:16:58.840Z,5.50
2022-09-12T02:19:34.520Z,5.38
2022-09-12T02:22:05.186Z,5.50
2022-09-12T02:24:40.306Z,5.70
2022-09-12T02:27:16.724Z,5.53
2022-09-12T02:29:46.112Z,5.25
2022-09-12T02:32:29.938Z,5.32
2022-09-12T02:35:07.443Z,5.57
2022-09-12T02:38:25.330Z,6.05
2022-09-12T02:40:52.963Z,5.95
2022-09-12T02:43:19.748Z,5.70
2022-09-12T02:45:46.750Z,6.35
2022-09-12T02:48:28.164Z,6.05
2022-09-12T02:50:55.123Z,5.90
2022-09-12T02:53:23.264Z,5.63
2022-09-12T02:55:51.610Z,5.55
2022-09-12T02:58:24.123Z,5.47
2022-09-12T03:01:14.999Z,6.70
2022-09-12T03:04:28.840Z,5.95
2022-09-12T03:07:16.570Z,6.20
2022-09-12T03:10:11.862Z,5.90
2022-09-12T03:12:47.895Z,6.80
2022-09-12T03:16:05.131Z,6.43
2022-09-12T03:18:57.686Z,6.63
2022-09-12T03:21:55.418Z,5.75
2022-09-12T03:24:40.205Z,6.35
2022-09-12T03:27:21.267Z,6.90
2022-09-12T03:29:49.815Z,6.07
2022-09-12T03:32:16.668Z,6.68
2022-09-12T03:34:43.434Z,7.28
2022-09-12T03:37:10.422Z,6.40
2022-09-12T03:39:37.229Z,6.00
2022-09-12T03:42:04.391Z,6.70
2022-09-12T03:44:31.329Z,5.90
2022-09-12T03:46:58.126Z,5.72
2022-09-12T03:49:24.999Z,6.30
2022-09-12T03:51:51.927Z,6.05
2022-09-12T03:54:18.782Z,6.25
2022-09-12T03:56:45.572Z,6.07
2022-09-12T03:59:12.542Z,6.55
2022-09-12T04:01:39.397Z,6.53
2022-09-12T04:04:06.315Z,6.70
2022-09-12T04:06:33.430Z,6.30
2022-09-12T04:09:00.235Z,6.70
2022-09-12T04:11:27.183Z,6.20
2022-09-12T04:13:54.390Z,6.45
2022-09-12T04:16:21.493Z,7.20
2022-09-12T04:18:48.541Z,6.57
2022-09-12T04:21:19.536Z,6.38
2022-09-12T04:23:46.345Z,6.88
2022-09-12T04:26:14.780Z,6.65
2022-09-12T04:28:41.916Z,7.10
2022-09-12T04:31:15.571Z,7.22
2022-09-12T04:33:42.732Z,6.65
2022-09-12T04:36:16.669Z,6.13
2022-09-12T04:38:47.256Z,6.87
2022-09-12T04:41:27.401Z,7.05
2022-09-12T04:43:58.925Z,6.70
2022-09-12T04:46:26.651Z,6.68
2022-09-12T04:48:56.819Z,6.88
2022-09-12T04:51:32.139Z,6.20
2022-09-12T04:54:03.042Z,6.28
2022-09-12T04:56:31.121Z,7.35
2022-09-12T04:59:00.798Z,7.43
2022-09-12T05:01:30.511Z,6.97
2022-09-12T05:03:59.977Z,7.00
2022-09-12T05:06:34.779Z,6.32
2022-09-12T05:12:02.513Z,6.25
2022-09-12T05:14:25.721Z,7.30
2022-09-12T05:16:52.634Z,6.57
2022-09-12T05:19:19.489Z,6.57
2022-09-12T05:21:46.518Z,6.68
2022-09-12T05:24:13.345Z,6.55
2022-09-12T05:26:40.184Z,7.03
2022-09-12T05:29:07.321Z,7.30
2022-09-12T05:31:35.008Z,6.97
2022-09-12T05:34:04.656Z,6.90
2022-09-12T05:36:32.027Z,6.10
2022-09-12T05:39:02.371Z,7.93
2022-09-12T05:41:32.919Z,7.63
2022-09-12T05:44:04.712Z,7.50
2022-09-12T05:46:38.328Z,7.22
2022-09-12T05:49:09.943Z,7.22
2022-09-12T05:51:40.558Z,6.97
2022-09-12T05:54:11.838Z,7.50
2022-09-12T05:56:42.969Z,7.55
2022-09-12T05:59:15.920Z,8.35
2022-09-12T06:02:01.941Z,7.97
2022-09-12T06:04:30.640Z,7.68
2022-09-12T06:06:57.578Z,7.00
2022-09-12T06:09:25.774Z,7.53
2022-09-12T06:11:52.906Z,7.30
2022-09-12T06:14:20.031Z,7.75
2022-09-12T06:16:47.630Z,10.15
2022-09-12T06:19:21.820Z,8.13
2022-09-12T06:21:50.092Z,7.30
2022-09-12T06:24:19.888Z,8.48
2022-09-12T06:26:48.825Z,7.75
2022-09-12T06:29:16.600Z,7.57
2022-09-12T06:31:44.328Z,8.82
2022-09-12T06:34:14.608Z,7.85
2022-09-12T06:36:46.047Z,9.98
2022-09-12T06:39:17.014Z,8.65
2022-09-12T06:41:44.686Z,7.88
2022-09-12T06:44:21.113Z,7.43
2022-09-12T06:46:48.736Z,7.97
2022-09-12T06:49:17.539Z,8.35
2022-09-12T06:51:44.918Z,7.75
2022-09-12T06:54:15.565Z,9.18
2022-09-12T06:56:43.188Z,9.27
2022-09-12T06:59:10.719Z,8.02
2022-09-12T07:01:38.294Z,8.18
2022-09-12T07:04:05.915Z,8.63
2022-09-12T07:06:44.659Z,8.13
2022-09-12T07:09:18.024Z,8.23
2022-09-12T07:11:46.743Z,7.65
2022-09-12T07:14:15.001Z,7.80
2022-09-12T07:16:42.848Z,7.50
2022-09-12T07:19:10.808Z,7.25
2022-09-12T07:21:40.531Z,7.80
2022-09-12T07:24:11.591Z,7.85
2022-09-12T07:26:40.766Z,7.60
2022-09-12T07:29:36.924Z,8.10
2022-09-12T07:32:06.915Z,8.10
2022-09-12T07:34:34.949Z,9.93
2022-09-12T07:37:02.128Z,8.63
2022-09-12T07:39:29.311Z,7.22
2022-09-12T07:41:56.087Z,8.23
2022-09-12T07:44:23.678Z,7.88
2022-09-12T07:46:50.903Z,7.43
2022-09-12T07:49:17.854Z,7.82
2022-09-12T07:51:44.711Z,7.55
2022-09-12T07:54:11.973Z,7.80
2022-09-12T07:56:39.638Z,7.57
2022-09-12T07:59:08.247Z,8.40
2022-09-12T08:01:35.829Z,8.23
2022-09-12T08:04:05.058Z,9.25
2022-09-12T08:06:35.985Z,8.75
2022-09-12T08:09:05.307Z,7.97
2022-09-12T08:11:32.586Z,8.05
2022-09-12T08:14:01.761Z,8.65
2022-09-12T08:16:32.242Z,8.02
2022-09-12T08:19:04.480Z,7.97
2022-09-12T08:21:33.881Z,8.45
2022-09-12T08:24:05.938Z,8.15
2022-09-12T08:26:36.039Z,7.95
2022-09-12T08:29:04.411Z,7.90
2022-09-12T08:31:36.501Z,8.07
2022-09-12T08:34:06.005Z,8.55
2022-09-12T08:36:33.366Z,8.48
2022-09-12T08:39:04.839Z,7.90
2022-09-12T08:41:39.914Z,9.27
2022-09-12T08:47:13.780Z,8.45
2022-09-12T08:50:08.384Z,8.30
2022-09-12T08:52:52.057Z,8.40
2022-09-12T08:55:40.676Z,7.65
2022-09-12T08:58:22.753Z,7.35
2022-09-12T09:00:59.501Z,6.95
2022-09-12T09:03:52.478Z,6.38
2022-09-12T09:06:34.620Z,6.15
2022-09-12T09:09:24.821Z,5.32
2022-09-12T09:12:12.830Z,6.30
2022-09-12T09:14:57.002Z,5.45
2022-09-12T09:17:46.021Z,5.65
2022-09-12T09:20:23.654Z,6.03
2022-09-12T09:23:06.253Z,6.18
2022-09-12T09:26:17.160Z,6.82
2022-09-12T09:28:54.216Z,6.03
2022-09-12T09:31:28.417Z,5.10
2022-09-12T09:33:55.632Z,4.97
2022-09-12T09:36:42.086Z,5.60
2022-09-12T09:39:29.602Z,4.80
2022-09-12T09:42:36.318Z,4.82
2022-09-12T09:45:16.137Z,4.30
2022-09-12T09:47:58.188Z,4.93
2022-09-12T09:50:25.435Z,4.93
2022-09-12T09:52:56.977Z,4.90
2022-09-12T09:55:31.009Z,5.28
2022-09-12T09:57:58.040Z,3.97
2022-09-12T10:00:36.431Z,3.95
2022-09-12T10:03:13.496Z,3.80
2022-09-12T10:05:50.041Z,3.72
2022-09-12T10:08:32.784Z,3.70
2022-09-12T10:11:19.375Z,3.70
2022-09-12T10:13:57.460Z,3.78
2022-09-12T10:16:31.815Z,3.35
2022-09-12T10:19:02.277Z,3.40
2022-09-12T10:21:56.502Z,3.20
2022-09-12T10:24:30.613Z,2.90
2022-09-12T10:27:08.928Z,3.15
2022-09-12T10:29:48.478Z,3.55
2022-09-12T10:32:34.684Z,2.63
2022-09-12T10:35:38.721Z,2.58
2022-09-12T10:38:14.228Z,2.60
2022-09-12T10:40:44.257Z,2.47
2022-09-12T10:43:34.391Z,2.75
2022-09-12T10:46:29.383Z,3.33
2022-09-12T10:49:38.148Z,3.10
2022-09-12T10:52:24.054Z,2.92
2022-09-12T10:57:25.516Z,2.33
2022-09-12T11:00:17.801Z,2.30
2022-09-12T11:03:53.079Z,2.25
2022-09-12T11:06:39.881Z,2.67
2022-09-12T11:09:32.126Z,2.40
2022-09-12T11:12:25.095Z,2.40
2022-09-12T11:15:19.637Z,2.97
2022-09-12T11:18:38.143Z,2.25
2022-09-12T11:21:57.648Z,2.92
2022-09-12T11:24:39.775Z,3.30
2022-09-12T11:27:44.865Z,3.28
2022-09-12T11:30:16.440Z,3.35
2022-09-12T11:33:26.285Z,3.53
2022-09-12T11:35:55.598Z,3.40
2022-09-12T11:38:51.033Z,3.05
2022-09-12T11:41:26.459Z,3.70
2022-09-12T11:44:22.234Z,4.57
2022-09-12T11:49:35.408Z,3.38
2022-09-12T11:52:29.673Z,3.40
2022-09-12T11:55:08.538Z,3.47
2022-09-12T11:57:56.160Z,3.00
2022-09-12T12:00:36.501Z,3.50
2022-09-12T12:03:13.851Z,2.40
2022-09-12T12:05:54.421Z,2.80
2022-09-12T12:08:24.080Z,3.13
2022-09-12T12:10:57.492Z,2.78
2022-09-12T12:13:45.819Z,2.97
2022-09-12T12:16:33.660Z,2.42
2022-09-12T12:19:07.516Z,2.22
2022-09-12T12:21:44.076Z,2.20
2022-09-12T12:24:26.694Z,2.60
2022-09-12T12:27:20.725Z,2.20
2022-09-12T12:29:48.160Z,2.58
2022-09-12T12:32:20.194Z,2.80
2022-09-12T12:34:48.176Z,2.90
2022-09-12T12:37:19.890Z,2.42
2022-09-12T12:39:48.318Z,2.22
2022-09-12T12:42:36.437Z,2.00
2022-09-12T12:45:13.046Z,2.90
2022-09-12T12:47:45.976Z,2.35
2022-09-12T12:50:16.796Z,2.70
2022-09-12T12:53:06.888Z,2.90
2022-09-12T12:55:47.290Z,2.50
2022-09-12T12:58:40.970Z,2.40
2022-09-12T13:01:23.043Z,2.83
2022-09-12T13:04:02.656Z,2.60
2022-09-12T13:06:39.655Z,2.60
2022-09-12T13:09:19.040Z,2.78
2022-09-12T13:11:47.111Z,3.10
2022-09-12T13:14:51.907Z,2.70
2022-09-12T13:17:44.798Z,2.60
2022-09-12T13:20:30.751Z,2.50
2022-09-12T13:22:58.635Z,2.47
2022-09-12T13:25:35.357Z,2.95
2022-09-12T13:28:11.568Z,2.83
2022-09-12T13:31:17.160Z,2.70
2022-09-12T13:34:01.516Z,2.53
2022-09-12T13:36:55.932Z,2.95
2022-09-12T13:39:35.072Z,2.70
2022-09-12T13:42:29.329Z,2.50
2022-09-12T13:45:24.052Z,2.40
2022-09-12T13:48:04.621Z,2.78
2022-09-12T13:50:50.932Z,3.22
2022-09-12T13:53:24.210Z,2.60
2022-09-12T13:55:59.682Z,2.70
2022-09-12T13:58:35.353Z,2.65
2022-09-12T14:01:46.443Z,2.72
2022-09-12T14:04:45.623Z,2.50
2022-09-12T14:07:21.256Z,2.35
2022-09-12T14:10:01.062Z,2.83
2022-09-12T14:12:43.598Z,2.38
2022-09-12T14:15:25.262Z,2.78
2022-09-12T14:17:59.678Z,2.75
2022-09-12T14:20:42.054Z,2.80
2022-09-12T14:23:32.508Z,2.92
2022-09-12T14:26:09.803Z,2.53
2022-09-12T14:28:40.928Z,2.53
2022-09-12T14:31:28.722Z,3.30
2022-09-12T14:34:18.191Z,4.20
2022-09-12T14:36:56.326Z,3.08
2022-09-12T14:39:33.572Z,2.72
2022-09-12T14:42:27.115Z,2.65
2022-09-12T14:45:06.337Z,2.67
2022-09-12T14:47:42.836Z,2.70
2022-09-12T14:50:26.324Z,2.60
2022-09-12T14:53:38.163Z,3.03
2022-09-12T14:56:05.437Z,3.90
2022-09-12T14:58:33.409Z,2.85
2022-09-12T15:01:05.594Z,5.00
2022-09-12T15:03:51.855Z,4.30
2022-09-12T15:06:38.335Z,2.67
2022-09-12T15:09:23.923Z,2.97
2022-09-12T15:11:51.013Z,4.85
2022-09-12T15:14:18.843Z,4.85
2022-09-12T15:16:45.781Z,2.95
2022-09-12T15:19:13.479Z,2.45
2022-09-12T15:21:40.744Z,3.10
2022-09-12T15:24:09.219Z,3.90
2022-09-12T15:26:36.491Z,5.95
2022-09-12T15:29:03.926Z,5.07
2022-09-12T15:31:32.588Z,3.20
2022-09-12T15:34:02.536Z,2.95
2022-09-12T15:36:30.416Z,3.10
2022-09-12T15:38:58.714Z,3.55
2022-09-12T15:41:37.007Z,3.90
2022-09-12T15:44:12.534Z,2.97
2022-09-12T15:46:41.478Z,3.03
2022-09-12T15:49:08.591Z,3.17
2022-09-12T15:51:35.851Z,2.75
2022-09-12T15:54:04.490Z,3.10
2022-09-12T15:56:31.737Z,2.85
2022-09-12T15:59:00.123Z,3.33
2022-09-12T16:02:08.546Z,2.70
2022-09-12T16:04:36.864Z,3.97
2022-09-12T16:07:39.270Z,3.00
2022-09-12T16:10:27.759Z,3.08
2022-09-12T16:12:55.714Z,4.15
2022-09-12T16:15:26.001Z,3.53
2022-09-12T16:17:53.498Z,3.05
2022-09-12T16:20:21.909Z,3.95
2022-09-12T16:22:49.455Z,3.20
2022-09-12T16:25:17.468Z,3.72
2022-09-12T16:27:48.683Z,3.30
2022-09-12T16:30:16.111Z,3.58
2022-09-12T16:32:46.390Z,3.03
2022-09-12T16:35:14.664Z,3.17
2022-09-12T16:37:42.324Z,3.47
2022-09-12T16:40:10.301Z,3.40
2022-09-12T16:42:40.725Z,3.20
2022-09-12T16:45:11.423Z,3.30
2022-09-12T16:47:39.428Z,2.75
2022-09-12T16:50:07.708Z,3.17
2022-09-12T16:52:38.592Z,4.25
2022-09-12T16:55:07.148Z,3.40
2022-09-12T16:57:36.067Z,3.00
2022-09-12T17:00:05.056Z,3.30
2022-09-12T17:02:33.763Z,3.30
2022-09-12T17:05:00.794Z,3.92
2022-09-12T17:07:31.422Z,3.30
2022-09-12T17:10:06.040Z,3.05
2022-09-12T17:12:36.074Z,3.20
2022-09-12T17:15:04.126Z,2.92
2022-09-12T17:17:32.375Z,3.13
2022-09-12T17:19:59.597Z,3.00
2022-09-12T17:22:28.137Z,2.50
2022-09-12T17:24:55.239Z,2.72
2022-09-12T17:27:22.561Z,2.85
2022-09-12T17:29:52.595Z,2.72
2022-09-12T17:32:23.728Z,2.90
2022-09-12T17:34:51.853Z,3.17
2022-09-12T17:37:26.638Z,2.58
2022-09-12T17:39:58.215Z,2.70
2022-09-12T17:42:27.502Z,3.33
2022-09-12T17:44:59.863Z,3.05
2022-09-12T17:47:29.707Z,2.63
2022-09-12T17:50:14.776Z,2.70
2022-09-12T17:52:48.209Z,2.90
2022-09-12T17:55:15.420Z,2.53
2022-09-12T17:57:44.291Z,2.47
2022-09-12T18:00:12.867Z,3.28
2022-09-12T18:02:46.877Z,3.67
2022-09-12T18:05:16.139Z,3.45
2022-09-12T18:07:51.202Z,3.35
2022-09-12T18:10:18.805Z,3.10
2022-09-12T18:12:52.280Z,3.17
2022-09-12T18:15:26.134Z,3.28
2022-09-12T18:17:55.222Z,3.85
2022-09-12T18:20:22.683Z,3.10
2022-09-12T18:22:50.168Z,4.03
2022-09-12T18:25:17.192Z,7.30
2022-09-12T18:27:50.519Z,4.57
2022-09-12T18:30:21.992Z,3.53
2022-09-12T18:32:50.258Z,6.10
2022-09-12T18:35:17.412Z,3.15
2022-09-12T18:37:45.999Z,3.20
2022-09-12T18:40:13.182Z,3.40
2022-09-12T18:42:41.147Z,4.95
2022-09-12T18:45:09.291Z,3.42
2022-09-12T18:47:37.653Z,5.03
2022-09-12T18:50:06.651Z,3.55
2022-09-12T18:52:40.465Z,3.40
2022-09-12T18:55:07.982Z,5.80
2022-09-12T18:57:39.174Z,5.65
2022-09-12T19:00:12.573Z,3.60
2022-09-12T19:02:40.129Z,3.30
2022-09-12T19:05:07.495Z,4.20
2022-09-12T19:07:35.344Z,3.85
2022-09-12T19:10:04.527Z,3.30
2022-09-12T19:12:39.194Z,3.05
2022-09-12T19:15:07.297Z,3.80
2022-09-12T19:17:37.253Z,3.85
2022-09-12T19:20:06.141Z,4.30
2022-09-12T19:22:38.846Z,3.63
2022-09-12T19:25:07.774Z,5.00
2022-09-12T19:27:38.226Z,3.50
2022-09-12T19:30:06.672Z,5.90
2022-09-12T19:32:37.532Z,5.07
2022-09-12T19:35:06.394Z,3.85
2022-09-12T19:37:34.369Z,6.50
2022-09-12T19:40:05.438Z,6.65
2022-09-12T19:42:32.975Z,4.05
2022-09-12T19:45:01.410Z,8.25
2022-09-12T19:47:28.768Z,5.15
2022-09-12T19:49:57.272Z,11.68
2022-09-12T19:52:24.407Z,6.75
2022-09-12T19:54:51.645Z,4.65
2022-09-12T19:57:18.581Z,4.20
2022-09-12T19:59:46.335Z,4.10
2022-09-12T20:02:13.484Z,4.18
2022-09-12T20:04:40.597Z,3.75
2022-09-12T20:07:08.378Z,4.00
2022-09-12T20:09:36.049Z,11.38
2022-09-12T20:12:04.342Z,4.47
2022-09-12T20:14:31.694Z,3.85
2022-09-12T20:16:58.782Z,3.92
2022-09-12T20:19:25.930Z,16.23
2022-09-12T20:21:52.735Z,6.10
2022-09-12T20:24:19.790Z,4.30
2022-09-12T20:26:46.805Z,3.90
2022-09-12T20:29:14.979Z,4.15
2022-09-12T20:31:43.151Z,6.07
2022-09-12T20:34:21.191Z,4.90
2022-09-12T20:36:48.623Z,3.95
2022-09-12T20:39:19.774Z,3.90
2022-09-12T20:41:47.419Z,7.13
2022-09-12T20:44:14.898Z,4.88
2022-09-12T20:46:44.230Z,4.00
2022-09-12T20:49:11.898Z,4.13
2022-09-12T20:51:39.166Z,6.70
2022-09-12T20:54:07.446Z,6.20
2022-09-12T20:56:37.679Z,13.10
2022-09-12T20:59:05.630Z,9.00
2022-09-12T21:01:33.148Z,10.60
2022-09-12T21:04:01.186Z,4.80
2022-09-12T21:06:28.868Z,4.97
2022-09-12T21:09:00.447Z,3.50
2022-09-12T21:11:28.600Z,4.32
2022-09-12T21:13:55.904Z,4.32
2022-09-12T21:16:23.732Z,4.75
2022-09-12T21:18:59.774Z,7.13
2022-09-12T21:21:27.600Z,5.65
2022-09-12T21:24:04.731Z,5.35
2022-09-12T21:26:32.608Z,7.03
2022-09-12T21:28:59.479Z,5.57
2022-09-12T21:31:26.902Z,15.82
2022-09-12T21:33:54.005Z,17.13
2022-09-12T21:36:20.878Z,17.60
2022-09-12T21:38:48.030Z,10.70
2022-09-12T21:41:17.047Z,6.88
2022-09-12T21:43:44.360Z,16.75
2022-09-12T21:46:11.646Z,8.68
2022-09-12T21:48:38.996Z,13.65
2022-09-12T21:51:06.587Z,6.88
2022-09-12T21:53:33.505Z,11.25
2022-09-12T21:56:07.041Z,5.80
2022-09-12T21:58:34.988Z,10.10
2022-09-12T22:01:02.689Z,12.23
2022-09-12T22:03:30.454Z,11.32
2022-09-12T22:06:03.417Z,6.75
2022-09-12T22:08:33.576Z,6.53
2022-09-12T22:11:03.924Z,10.73
2022-09-12T22:13:32.300Z,7.18
2022-09-12T22:16:02.879Z,6.18
2022-09-12T22:18:32.771Z,9.05
2022-09-12T22:21:08.071Z,9.45
2022-09-12T22:23:53.995Z,6.13
2022-09-12T22:26:21.195Z,9.15
2022-09-12T22:28:48.300Z,7.00
2022-09-12T22:31:16.124Z,6.07
2022-09-12T22:33:43.777Z,6.47
2022-09-12T22:36:10.766Z,6.88
2022-09-12T22:38:38.399Z,10.45
2022-09-12T22:41:11.837Z,7.88
2022-09-12T22:43:39.088Z,6.22
2022-09-12T22:46:12.458Z,8.38
2022-09-12T22:48:40.405Z,9.38
2022-09-12T22:51:08.403Z,8.95
2022-09-12T22:53:36.471Z,7.68
2022-09-12T22:56:05.133Z,8.32
2022-09-12T22:58:36.701Z,6.63
2022-09-12T23:01:06.324Z,6.63
2022-09-12T23:03:34.330Z,5.68
2022-09-12T23:06:01.171Z,6.30
2022-09-12T23:08:29.829Z,6.78
2022-09-12T23:11:11.527Z,6.55
2022-09-12T23:13:44.795Z,6.38
2022-09-12T23:16:22.445Z,6.05
2022-09-12T23:18:49.702Z,6.18
2022-09-12T23:21:19.895Z,6.47
2022-09-12T23:23:47.141Z,7.53
2022-09-12T23:26:24.088Z,6.45
2022-09-12T23:29:00.508Z,6.28
2022-09-12T23:31:31.086Z,6.55
2022-09-12T23:34:02.214Z,7.30
2022-09-12T23:36:30.310Z,7.05
2022-09-12T23:38:58.289Z,6.00
2022-09-12T23:41:25.524Z,6.40
2022-09-12T23:43:52.700Z,6.80
2022-09-12T23:46:20.230Z,7.35
2022-09-12T23:48:47.937Z,6.65
2022-09-12T23:51:16.005Z,6.43
2022-09-12T23:53:42.868Z,6.00
2022-09-12T23:56:10.117Z,6.20
2022-09-12T23:58:37.246Z,5.85
